createdAt,value
2019-05-18T00:00:08.590Z,71.05
2019-05-18T00:02:39.829Z,72.29
2019-05-18T00:05:11.163Z,72.88
2019-05-18T00:07:42.380Z,72.15
2019-05-18T00:10:14.497Z,71.56
2019-05-18T00:12:45.573Z,71.08
2019-05-18T00:15:16.782Z,70.64
2019-05-18T00:17:47.973Z,70.47
2019-05-18T00:20:19.357Z,70.31
2019-05-18T00:22:50.917Z,70.28
2019-05-18T00:25:22.163Z,70.32
2019-05-18T00:27:53.237Z,70.17
2019-05-18T00:30:25.868Z,70.11
2019-05-18T00:32:56.892Z,70.01
2019-05-18T00:35:27.927Z,70.06
2019-05-18T00:37:59.265Z,69.96
2019-05-18T00:40:30.550Z,69.91
2019-05-18T00:43:01.571Z,69.80
2019-05-18T00:45:32.771Z,69.68
2019-05-18T00:48:03.867Z,69.59
2019-05-18T00:50:35.036Z,69.52
2019-05-18T00:53:06.081Z,69.49
2019-05-18T00:55:37.345Z,69.42
2019-05-18T00:58:08.589Z,69.42
2019-05-18T01:00:39.825Z,69.39
2019-05-18T01:03:10.988Z,69.48
2019-05-18T01:05:42.136Z,69.91
2019-05-18T01:08:13.284Z,70.28
2019-05-18T01:10:45.429Z,71.20
2019-05-18T01:13:16.413Z,71.85
2019-05-18T01:15:47.737Z,72.37
2019-05-18T01:18:18.777Z,72.08
2019-05-18T01:20:51.373Z,72.25
2019-05-18T01:23:22.521Z,72.94
2019-05-18T01:25:53.562Z,72.65
2019-05-18T01:28:24.688Z,72.91
2019-05-18T01:30:55.752Z,73.50
2019-05-18T01:33:26.955Z,74.04
2019-05-18T01:35:58.005Z,73.53
2019-05-18T01:38:29.118Z,73.22
2019-05-18T01:41:00.098Z,73.04
2019-05-18T01:43:31.221Z,73.40
2019-05-18T01:46:02.412Z,73.30
2019-05-18T01:48:33.623Z,73.59
2019-05-18T01:51:04.802Z,74.15
2019-05-18T01:53:36.051Z,74.33
2019-05-18T01:56:07.401Z,73.79
2019-05-18T01:58:38.589Z,73.40
2019-05-18T02:01:09.786Z,73.82
2019-05-18T02:03:40.787Z,73.83
2019-05-18T02:06:11.932Z,73.97
2019-05-18T02:08:43.159Z,73.86
2019-05-18T02:11:14.150Z,73.97
2019-05-18T02:13:45.035Z,73.95
2019-05-18T02:16:16.175Z,74.00
2019-05-18T02:18:47.317Z,74.52
2019-05-18T02:21:18.312Z,74.23
2019-05-18T02:23:49.973Z,74.12
2019-05-18T02:26:21.298Z,74.26
2019-05-18T02:28:52.646Z,73.95
2019-05-18T02:31:23.795Z,74.29
2019-05-18T02:33:54.831Z,74.16
2019-05-18T02:36:26.050Z,73.97
2019-05-18T02:38:57.253Z,74.06
2019-05-18T02:41:28.275Z,74.17
2019-05-18T02:43:59.927Z,74.02
2019-05-18T02:46:31.163Z,73.98
2019-05-18T02:49:02.331Z,73.79
2019-05-18T02:51:33.865Z,73.64
2019-05-18T02:54:05.201Z,73.79
2019-05-18T02:56:37.030Z,73.80
2019-05-18T02:59:08.402Z,73.74
2019-05-18T03:01:39.764Z,73.50
2019-05-18T03:04:11.162Z,73.27
2019-05-18T03:06:42.771Z,73.18
2019-05-18T03:09:13.903Z,72.98
2019-05-18T03:11:45.611Z,72.77
2019-05-18T03:14:16.762Z,72.58
2019-05-18T03:16:47.738Z,72.37
2019-05-18T03:19:18.830Z,72.33
2019-05-18T03:21:50.076Z,72.39
2019-05-18T03:24:21.105Z,72.46
2019-05-18T03:26:52.259Z,72.05
2019-05-18T03:29:23.562Z,71.93
2019-05-18T03:31:54.681Z,71.75
2019-05-18T03:34:25.685Z,71.57
2019-05-18T03:36:56.773Z,71.53
2019-05-18T03:39:28.071Z,71.68
2019-05-18T03:41:59.254Z,72.03
2019-05-18T03:44:30.552Z,72.08
2019-05-18T03:47:01.587Z,72.14
2019-05-18T03:49:32.819Z,71.84
2019-05-18T03:52:03.967Z,71.80
2019-05-18T03:54:35.153Z,71.71
2019-05-18T03:57:06.272Z,71.65
2019-05-18T03:59:37.536Z,71.50
2019-05-18T04:02:08.811Z,71.58
2019-05-18T04:04:39.780Z,71.91
2019-05-18T04:07:10.784Z,71.86
2019-05-18T04:09:41.853Z,71.67
2019-05-18T04:12:14.364Z,71.58
2019-05-18T04:14:45.618Z,71.37
2019-05-18T04:17:16.791Z,71.18
2019-05-18T04:19:47.791Z,70.98
2019-05-18T04:22:18.837Z,70.62
2019-05-18T04:24:49.728Z,70.19
2019-05-18T04:27:20.816Z,69.94
2019-05-18T04:29:52.008Z,69.68
2019-05-18T04:32:23.036Z,69.56
2019-05-18T04:34:54.012Z,69.41
2019-05-18T04:37:25.065Z,69.38
2019-05-18T04:39:56.291Z,69.34
2019-05-18T04:42:27.722Z,69.26
2019-05-18T04:44:59.020Z,69.30
2019-05-18T04:47:29.956Z,69.25
2019-05-18T04:50:05.313Z,69.12
2019-05-18T04:52:33.720Z,69.07
2019-05-18T04:55:05.828Z,69.06
2019-05-18T04:57:36.946Z,68.96
2019-05-18T05:00:09.977Z,68.94
2019-05-18T05:02:41.351Z,68.87
2019-05-18T05:05:12.860Z,68.90
2019-05-18T05:07:45.457Z,68.83
2019-05-18T05:10:16.570Z,69.06
2019-05-18T05:12:47.736Z,69.12
2019-05-18T05:15:18.868Z,69.03
2019-05-18T05:17:49.784Z,69.21
2019-05-18T05:20:21.025Z,69.08
2019-05-18T05:22:52.091Z,68.86
2019-05-18T05:25:23.203Z,69.02
2019-05-18T05:27:54.529Z,68.78
2019-05-18T05:30:25.533Z,68.75
2019-05-18T05:32:56.810Z,68.47
2019-05-18T05:35:27.965Z,68.24
2019-05-18T05:37:59.124Z,68.05
2019-05-18T05:40:30.144Z,67.83
2019-05-18T05:43:01.035Z,67.71
2019-05-18T05:45:32.238Z,67.48
2019-05-18T05:48:03.225Z,67.36
2019-05-18T05:50:36.416Z,67.20
2019-05-18T05:53:07.238Z,67.00
2019-05-18T05:55:38.364Z,66.84
2019-05-18T05:58:09.642Z,66.65
2019-05-18T06:00:40.702Z,66.40
2019-05-18T06:03:11.961Z,66.25
2019-05-18T06:05:44.661Z,65.92
2019-05-18T06:08:15.706Z,65.60
2019-05-18T06:10:46.743Z,65.37
2019-05-18T06:13:17.916Z,65.06
2019-05-18T06:15:49.025Z,64.78
2019-05-18T06:18:21.717Z,64.44
2019-05-18T06:20:52.625Z,64.13
2019-05-18T06:23:23.627Z,63.76
2019-05-18T06:25:54.676Z,63.33
2019-05-18T06:28:25.585Z,62.94
2019-05-18T06:30:56.651Z,62.71
2019-05-18T06:33:27.973Z,62.50
2019-05-18T06:35:59.026Z,62.22
2019-05-18T06:38:30.238Z,61.65
2019-05-18T06:41:01.282Z,61.08
2019-05-18T06:43:32.530Z,60.91
2019-05-18T06:46:03.543Z,60.89
2019-05-18T06:48:34.688Z,60.71
2019-05-18T06:51:07.497Z,60.30
2019-05-18T06:53:38.919Z,59.94
2019-05-18T06:56:11.310Z,59.47
2019-05-18T06:58:43.270Z,59.15
2019-05-18T07:01:14.270Z,59.04
2019-05-18T07:03:45.544Z,59.03
2019-05-18T07:06:16.489Z,58.74
2019-05-18T07:08:48.158Z,58.14
2019-05-18T07:11:19.248Z,58.06
2019-05-18T07:13:50.326Z,57.70
2019-05-18T07:16:21.574Z,57.65
2019-05-18T07:18:52.588Z,57.54
2019-05-18T07:21:23.848Z,56.84
2019-05-18T07:23:55.010Z,56.43
2019-05-18T07:26:26.156Z,55.85
2019-05-18T07:28:58.438Z,55.36
2019-05-18T07:31:29.256Z,55.10
2019-05-18T07:34:01.711Z,54.16
2019-05-18T07:36:32.771Z,54.72
2019-05-18T07:39:05.675Z,54.76
2019-05-18T07:41:46.173Z,54.51
2019-05-18T07:44:09.479Z,54.19
2019-05-18T07:46:40.732Z,53.44
2019-05-18T07:49:11.915Z,52.42
2019-05-18T07:51:44.458Z,52.36
2019-05-18T07:54:15.465Z,50.96
2019-05-18T07:56:46.348Z,50.88
2019-05-18T07:59:19.837Z,51.08
2019-05-18T08:01:50.221Z,50.33
2019-05-18T08:04:21.485Z,50.36
2019-05-18T08:06:52.723Z,48.94
2019-05-18T08:09:23.774Z,48.85
2019-05-18T08:11:54.850Z,48.79
2019-05-18T08:14:25.975Z,49.21
2019-05-18T08:16:56.943Z,49.26
2019-05-18T08:19:27.938Z,46.97
2019-05-18T08:21:59.249Z,45.77
2019-05-18T08:24:30.337Z,46.33
2019-05-18T08:27:02.285Z,45.98
2019-05-18T08:29:33.708Z,44.32
2019-05-18T08:32:04.795Z,44.47
2019-05-18T08:34:35.919Z,43.89
2019-05-18T08:37:07.020Z,45.06
2019-05-18T08:39:38.056Z,43.82
2019-05-18T08:42:09.078Z,44.22
2019-05-18T08:44:40.067Z,42.82
2019-05-18T08:47:11.292Z,43.18
2019-05-18T08:49:42.231Z,44.52
2019-05-18T08:52:13.257Z,41.39
2019-05-18T08:54:44.298Z,40.43
2019-05-18T08:57:15.191Z,40.64
2019-05-18T08:59:46.319Z,40.85
2019-05-18T09:02:17.267Z,39.96
2019-05-18T09:04:48.517Z,40.02
2019-05-18T09:07:19.871Z,40.20
2019-05-18T09:09:50.987Z,40.10
2019-05-18T09:12:21.889Z,40.15
2019-05-18T09:14:53.215Z,39.74
2019-05-18T09:17:24.421Z,39.64
2019-05-18T09:19:55.685Z,38.62
2019-05-18T09:22:26.878Z,38.36
2019-05-18T09:24:57.961Z,36.60
2019-05-18T09:27:28.940Z,36.67
2019-05-18T09:30:00.071Z,36.00
2019-05-18T09:32:31.082Z,35.44
2019-05-18T09:35:02.417Z,29.38
2019-05-18T09:37:33.420Z,19.87
2019-05-18T09:40:07.577Z,15.44
2019-05-18T09:42:38.990Z,12.89
2019-05-18T09:45:11.708Z,9.94
2019-05-18T09:47:43.042Z,8.55
2019-05-18T09:50:14.403Z,7.81
2019-05-18T09:52:46.315Z,7.28
2019-05-18T09:55:18.281Z,7.00
2019-05-18T09:57:49.422Z,6.24
2019-05-18T10:00:25.814Z,6.00
2019-05-18T10:02:58.547Z,5.56
2019-05-18T10:05:29.645Z,5.35
2019-05-18T10:08:00.792Z,5.15
2019-05-18T10:10:33.677Z,4.80
2019-05-18T10:13:04.927Z,4.74
2019-05-18T10:15:36.371Z,4.58
2019-05-18T10:18:07.692Z,4.57
2019-05-18T10:20:38.878Z,4.26
2019-05-18T10:23:13.624Z,4.29
2019-05-18T10:25:42.805Z,4.17
2019-05-18T10:28:14.220Z,4.09
2019-05-18T10:30:45.277Z,4.26
2019-05-18T10:33:16.596Z,4.18
2019-05-18T10:35:47.473Z,3.83
2019-05-18T10:38:19.033Z,4.04
2019-05-18T10:40:50.194Z,5.29
2019-05-18T10:43:21.793Z,7.42
2019-05-18T10:45:53.072Z,10.06
2019-05-18T10:48:24.175Z,12.26
2019-05-18T10:50:55.641Z,14.02
2019-05-18T10:53:29.092Z,15.04
2019-05-18T10:55:59.574Z,15.61
2019-05-18T10:58:30.801Z,16.71
2019-05-18T11:01:01.854Z,17.71
2019-05-18T11:03:32.985Z,19.01
2019-05-18T11:06:04.334Z,19.44
2019-05-18T11:08:38.287Z,20.83
2019-05-18T11:11:08.376Z,21.85
2019-05-18T11:13:39.483Z,22.91
2019-05-18T11:16:10.823Z,22.83
2019-05-18T11:18:41.858Z,23.21
2019-05-18T11:21:13.201Z,23.00
2019-05-18T11:23:47.851Z,23.97
2019-05-18T11:26:17.269Z,23.46
2019-05-18T11:28:48.392Z,23.78
2019-05-18T11:31:19.638Z,24.62
2019-05-18T11:33:50.723Z,24.79
2019-05-18T11:36:22.075Z,23.47
2019-05-18T11:38:53.118Z,23.76
2019-05-18T11:41:24.459Z,23.47
2019-05-18T11:43:56.103Z,23.44
2019-05-18T11:46:27.267Z,24.43
2019-05-18T11:48:59.205Z,23.85
2019-05-18T11:51:32.169Z,23.89
2019-05-18T11:54:03.427Z,23.60
2019-05-18T11:56:34.516Z,24.43
2019-05-18T11:59:05.660Z,24.00
2019-05-18T12:01:36.910Z,24.00
2019-05-18T12:04:08.084Z,23.33
2019-05-18T12:06:40.341Z,23.88
2019-05-18T12:09:11.727Z,24.42
2019-05-18T12:11:42.830Z,25.28
2019-05-18T12:14:13.899Z,25.40
2019-05-18T12:16:45.182Z,25.02
2019-05-18T12:19:16.212Z,24.97
2019-05-18T12:21:47.295Z,24.09
2019-05-18T12:24:18.381Z,24.87
2019-05-18T12:26:49.286Z,25.22
2019-05-18T12:29:20.173Z,25.55
2019-05-18T12:31:51.114Z,25.32
2019-05-18T12:34:22.427Z,26.23
2019-05-18T12:36:53.510Z,25.79
2019-05-18T12:39:24.460Z,25.87
2019-05-18T12:41:55.600Z,25.51
2019-05-18T12:44:26.920Z,25.99
2019-05-18T12:46:58.012Z,25.79
2019-05-18T12:49:29.198Z,26.13
2019-05-18T12:52:00.436Z,26.56
2019-05-18T12:54:45.687Z,26.26
2019-05-18T12:57:04.558Z,27.07
2019-05-18T12:59:35.698Z,27.85
2019-05-18T13:02:06.892Z,27.10
2019-05-18T13:04:37.865Z,26.99
2019-05-18T13:07:09.004Z,27.25
2019-05-18T13:09:40.186Z,26.54
2019-05-18T13:12:11.853Z,26.41
2019-05-18T13:14:43.147Z,26.39
2019-05-18T13:17:14.448Z,26.18
2019-05-18T13:19:45.484Z,26.35
2019-05-18T13:22:16.613Z,27.49
2019-05-18T13:24:47.634Z,27.63
2019-05-18T13:27:19.036Z,26.88
2019-05-18T13:29:49.994Z,26.31
2019-05-18T13:32:21.223Z,26.66
2019-05-18T13:34:52.197Z,27.05
2019-05-18T13:37:23.614Z,26.89
2019-05-18T13:39:54.736Z,26.39
2019-05-18T13:42:26.070Z,26.13
2019-05-18T13:44:57.224Z,26.42
2019-05-18T13:47:28.280Z,25.93
2019-05-18T13:49:59.672Z,26.36
2019-05-18T13:52:32.398Z,26.00
2019-05-18T13:55:05.231Z,26.28
2019-05-18T13:57:36.906Z,26.21
2019-05-18T14:00:09.285Z,25.73
2019-05-18T14:02:40.575Z,25.21
2019-05-18T14:05:12.512Z,24.95
2019-05-18T14:07:43.629Z,24.24
2019-05-18T14:10:16.576Z,24.58
2019-05-18T14:12:47.738Z,24.75
2019-05-18T14:15:22.592Z,24.14
2019-05-18T14:17:52.528Z,24.61
2019-05-18T14:20:26.321Z,24.70
2019-05-18T14:22:56.344Z,24.19
2019-05-18T14:25:27.406Z,23.85
2019-05-18T14:27:58.447Z,24.40
2019-05-18T14:30:29.483Z,24.58
2019-05-18T14:33:00.673Z,24.40
2019-05-18T14:35:33.385Z,24.36
2019-05-18T14:38:04.588Z,24.26
2019-05-18T14:40:35.843Z,24.55
2019-05-18T14:43:07.111Z,24.64
2019-05-18T14:45:38.362Z,25.33
2019-05-18T14:48:09.564Z,25.83
2019-05-18T14:50:41.016Z,26.50
2019-05-18T14:53:12.298Z,26.88
2019-05-18T14:55:43.297Z,27.45
2019-05-18T14:58:14.723Z,27.83
2019-05-18T15:00:45.992Z,28.06
2019-05-18T15:03:16.966Z,28.20
2019-05-18T15:05:48.237Z,28.32
2019-05-18T15:08:19.373Z,28.53
2019-05-18T15:10:50.479Z,28.64
2019-05-18T15:13:21.611Z,28.67
2019-05-18T15:15:53.048Z,28.72
2019-05-18T15:18:25.038Z,28.77
2019-05-18T15:20:56.403Z,28.96
2019-05-18T15:23:28.011Z,29.41
2019-05-18T15:25:59.080Z,29.47
2019-05-18T15:28:30.282Z,29.40
2019-05-18T15:31:01.325Z,30.53
2019-05-18T15:33:32.696Z,30.70
2019-05-18T15:36:03.985Z,30.88
2019-05-18T15:38:34.847Z,30.95
2019-05-18T15:41:06.161Z,31.11
2019-05-18T15:43:37.489Z,31.26
2019-05-18T15:46:08.945Z,31.30
2019-05-18T15:48:40.287Z,31.52
2019-05-18T15:51:11.780Z,31.71
2019-05-18T15:53:42.993Z,32.13
2019-05-18T15:56:14.313Z,32.44
2019-05-18T15:58:45.185Z,33.13
2019-05-18T16:01:16.253Z,33.50
2019-05-18T16:03:47.447Z,33.72
2019-05-18T16:06:18.828Z,34.06
2019-05-18T16:08:49.983Z,34.26
2019-05-18T16:11:21.237Z,34.65
2019-05-18T16:13:52.530Z,34.65
2019-05-18T16:16:23.689Z,34.98
2019-05-18T16:18:55.148Z,35.84
2019-05-18T16:21:26.499Z,38.85
2019-05-18T16:23:57.587Z,41.05
2019-05-18T16:26:28.832Z,41.99
2019-05-18T16:28:59.956Z,43.56
2019-05-18T16:31:30.868Z,44.35
2019-05-18T16:34:02.344Z,44.97
2019-05-18T16:36:33.533Z,45.35
2019-05-18T16:39:05.947Z,45.99
2019-05-18T16:41:36.989Z,45.63
2019-05-18T16:44:07.983Z,45.10
2019-05-18T16:46:38.894Z,45.15
2019-05-18T16:49:10.066Z,45.14
2019-05-18T16:51:41.117Z,45.09
2019-05-18T16:54:12.351Z,47.70
2019-05-18T16:56:43.351Z,48.47
2019-05-18T16:59:14.763Z,48.35
2019-05-18T17:01:46.408Z,48.36
2019-05-18T17:04:18.023Z,49.95
2019-05-18T17:06:49.197Z,46.90
2019-05-18T17:09:20.552Z,47.44
2019-05-18T17:11:51.900Z,48.48
2019-05-18T17:14:22.897Z,48.87
2019-05-18T17:16:54.030Z,49.76
2019-05-18T17:19:25.165Z,49.32
2019-05-18T17:21:56.459Z,48.64
2019-05-18T17:24:27.361Z,50.89
2019-05-18T17:26:58.447Z,52.29
2019-05-18T17:29:29.477Z,52.81
2019-05-18T17:32:00.841Z,51.61
2019-05-18T17:34:31.932Z,51.02
2019-05-18T17:37:03.170Z,50.88
2019-05-18T17:39:34.322Z,51.17
2019-05-18T17:42:05.747Z,51.50
2019-05-18T17:44:37.078Z,52.74
2019-05-18T17:47:08.029Z,52.78
2019-05-18T17:49:39.025Z,52.63
2019-05-18T17:52:10.280Z,52.46
2019-05-18T17:54:41.336Z,52.73
2019-05-18T17:57:13.991Z,54.68
2019-05-18T17:59:45.107Z,54.16
2019-05-18T18:02:16.127Z,54.77
2019-05-18T18:04:47.035Z,55.39
2019-05-18T18:07:18.244Z,55.63
2019-05-18T18:09:49.320Z,53.09
2019-05-18T18:12:20.548Z,51.80
2019-05-18T18:14:51.748Z,52.76
2019-05-18T18:17:23.058Z,55.29
2019-05-18T18:19:54.054Z,55.71
2019-05-18T18:22:25.263Z,57.35
2019-05-18T18:24:56.516Z,59.00
2019-05-18T18:27:29.721Z,61.79
2019-05-18T18:30:00.752Z,62.05
2019-05-18T18:32:32.332Z,62.56
2019-05-18T18:35:03.407Z,63.74
2019-05-18T18:37:34.732Z,64.14
2019-05-18T18:40:07.651Z,64.12
2019-05-18T18:42:38.675Z,63.29
2019-05-18T18:45:11.176Z,62.90
2019-05-18T18:47:42.504Z,64.20
2019-05-18T18:50:14.022Z,63.72
2019-05-18T18:52:45.163Z,63.81
2019-05-18T18:55:16.804Z,63.35
2019-05-18T18:57:48.056Z,63.44
2019-05-18T19:00:20.213Z,63.40
2019-05-18T19:02:51.789Z,62.68
2019-05-18T19:05:24.342Z,62.78
2019-05-18T19:07:55.448Z,62.83
2019-05-18T19:10:26.660Z,63.16
2019-05-18T19:12:57.908Z,62.77
2019-05-18T19:15:29.088Z,63.28
2019-05-18T19:18:00.177Z,63.64
2019-05-18T19:20:31.377Z,63.76
2019-05-18T19:23:02.433Z,65.05
2019-05-18T19:25:33.666Z,65.42
2019-05-18T19:28:04.767Z,65.92
2019-05-18T19:30:36.254Z,65.63
2019-05-18T19:33:07.400Z,66.07
2019-05-18T19:35:38.589Z,66.77
2019-05-18T19:38:09.705Z,67.18
2019-05-18T19:40:40.865Z,66.90
2019-05-18T19:43:11.996Z,67.17
2019-05-18T19:45:43.031Z,68.53
2019-05-18T19:48:14.103Z,68.75
2019-05-18T19:50:45.219Z,69.25
2019-05-18T19:53:16.405Z,69.94
2019-05-18T19:56:05.144Z,69.07
2019-05-18T19:58:36.188Z,68.25
2019-05-18T20:01:07.448Z,68.07
2019-05-18T20:03:38.700Z,67.91
2019-05-18T20:06:10.028Z,67.64
2019-05-18T20:08:40.944Z,67.17
2019-05-18T20:11:12.007Z,66.20
2019-05-18T20:13:42.915Z,66.46
2019-05-18T20:16:14.092Z,67.59
2019-05-18T20:18:45.608Z,66.95
2019-05-18T20:21:16.784Z,67.04
2019-05-18T20:23:48.173Z,67.82
2019-05-18T20:26:19.217Z,68.82
2019-05-18T20:28:50.549Z,68.48
2019-05-18T20:31:21.487Z,69.58
2019-05-18T20:33:53.876Z,69.10
2019-05-18T20:36:25.347Z,69.98
2019-05-18T20:38:56.487Z,68.98
2019-05-18T20:41:27.839Z,68.67
2019-05-18T20:43:59.359Z,68.89
2019-05-18T20:46:30.603Z,69.62
2019-05-18T20:49:02.739Z,69.13
2019-05-18T20:51:34.123Z,69.46
2019-05-18T20:54:05.783Z,69.45
2019-05-18T20:56:36.647Z,69.38
2019-05-18T20:59:07.796Z,69.43
2019-05-18T21:01:38.985Z,69.69
2019-05-18T21:04:10.111Z,69.40
2019-05-18T21:06:41.388Z,68.97
2019-05-18T21:09:12.587Z,69.03
2019-05-18T21:11:43.698Z,69.34
2019-05-18T21:14:14.776Z,69.49
2019-05-18T21:16:46.015Z,69.96
2019-05-18T21:19:17.151Z,70.68
2019-05-18T21:21:48.777Z,71.69
2019-05-18T21:24:19.930Z,71.69
2019-05-18T21:26:51.021Z,72.16
2019-05-18T21:29:21.979Z,72.64
2019-05-18T21:31:53.068Z,72.28
2019-05-18T21:34:24.125Z,71.74
2019-05-18T21:36:55.403Z,72.14
2019-05-18T21:39:26.528Z,71.59
2019-05-18T21:41:57.787Z,71.55
2019-05-18T21:44:28.877Z,71.13
2019-05-18T21:47:00.067Z,70.71
2019-05-18T21:49:30.991Z,70.46
2019-05-18T21:52:02.459Z,70.33
2019-05-18T21:54:34.017Z,70.28
2019-05-18T21:57:05.102Z,70.31
2019-05-18T21:59:36.123Z,71.70
2019-05-18T22:02:07.827Z,71.48
2019-05-18T22:04:38.979Z,72.18
2019-05-18T22:07:10.384Z,71.95
2019-05-18T22:09:41.649Z,71.74
2019-05-18T22:12:12.839Z,72.35
2019-05-18T22:14:43.960Z,72.24
2019-05-18T22:17:15.114Z,72.78
2019-05-18T22:19:46.137Z,72.87
2019-05-18T22:22:17.268Z,72.64
2019-05-18T22:24:48.445Z,73.73
2019-05-18T22:27:19.673Z,73.62
2019-05-18T22:29:50.669Z,73.64
2019-05-18T22:32:21.645Z,74.01
2019-05-18T22:34:52.728Z,74.09
2019-05-18T22:37:23.718Z,74.43
2019-05-18T22:39:54.825Z,75.21
2019-05-18T22:42:25.959Z,75.23
2019-05-18T22:44:56.969Z,75.34
2019-05-18T22:47:28.030Z,75.56
2019-05-18T22:49:59.053Z,75.40
2019-05-18T22:52:30.020Z,75.26
2019-05-18T22:55:01.185Z,74.99
2019-05-18T22:57:32.269Z,74.81
2019-05-18T23:00:04.859Z,74.83
2019-05-18T23:02:36.268Z,74.72
2019-05-18T23:05:07.955Z,74.52
2019-05-18T23:07:38.999Z,74.70
2019-05-18T23:10:10.378Z,74.52
2019-05-18T23:12:41.636Z,74.47
2019-05-18T23:15:13.044Z,74.53
2019-05-18T23:17:44.234Z,74.37
2019-05-18T23:20:15.474Z,74.33
2019-05-18T23:22:46.595Z,74.32
2019-05-18T23:25:17.880Z,74.32
2019-05-18T23:27:49.076Z,74.37
2019-05-18T23:30:20.150Z,74.25
2019-05-18T23:32:53.369Z,74.07
2019-05-18T23:35:24.496Z,74.11
2019-05-18T23:37:55.588Z,73.98
2019-05-18T23:40:26.731Z,74.69
2019-05-18T23:42:57.779Z,74.48
2019-05-18T23:45:28.908Z,74.53
2019-05-18T23:47:59.910Z,74.37
2019-05-18T23:50:31.300Z,74.28
2019-05-18T23:53:02.318Z,74.23
2019-05-18T23:55:34.546Z,74.61
2019-05-18T23:58:06.289Z,74.51
